Time;durP1;ratioP1;P1;durP2;ratioP2;P2;SDS_P1;SDS_P2;PMS_P1;PMS_P2;Temp;Humidity;BMP_temperature;BMP_pressure;BME280_temperature;BME280_humidity;BME280_pressure;Samples;Min_cycle;Max_cycle;Signal;HPM_P1;HPM_P2
2022/07/10 00:00:04;;;;;;;0.00;0.00;;;;;;;;;;2085747;28;20029;-64
2022/07/10 00:01:23;;;;;;;0.40;0.10;;;;;;;;;;2087608;28;20041;-65
2022/07/10 00:02:42;;;;;;;0.38;0.30;;;;;;;;;;2083893;28;20144;-65
2022/07/10 00:04:01;;;;;;;4.50;0.30;;;;;;;;;;2088121;28;20025;-65
2022/07/10 00:05:20;;;;;;;0.15;0.00;;;;;;;;;;2088377;28;20122;-64
2022/07/10 00:06:41;;;;;;;0.15;0.10;;;;;;;;;;2087670;28;20394;-64
2022/07/10 00:08:00;;;;;;;0.28;0.10;;;;;;;;;;2088828;28;20405;-64
2022/07/10 00:09:19;;;;;;;0.77;0.10;;;;;;;;;;2087242;28;20025;-65
2022/07/10 00:10:38;;;;;;;0.17;0.00;;;;;;;;;;2087302;28;20432;-65
2022/07/10 00:11:57;;;;;;;1.25;0.15;;;;;;;;;;2088973;28;20155;-64
2022/07/10 00:13:16;;;;;;;0.10;0.10;;;;;;;;;;2087672;28;20029;-65
2022/07/10 00:14:35;;;;;;;0.10;0.10;;;;;;;;;;2086413;28;20431;-65
2022/07/10 00:15:54;;;;;;;0.43;0.17;;;;;;;;;;2087923;28;20022;-65
2022/07/10 00:17:13;;;;;;;0.10;0.10;;;;;;;;;;2087086;28;20029;-64
2022/07/10 00:18:32;;;;;;;0.25;0.05;;;;;;;;;;2088195;28;20108;-65
2022/07/10 00:19:51;;;;;;;3.30;0.10;;;;;;;;;;2086580;28;20029;-65
2022/07/10 00:21:10;;;;;;;1.55;0.10;;;;;;;;;;2088409;28;20025;-65
2022/07/10 00:22:29;;;;;;;0.10;0.10;;;;;;;;;;2087096;28;20037;-65
2022/07/10 00:23:47;;;;;;;0.17;0.10;;;;;;;;;;2087500;28;20025;-65
2022/07/10 00:25:07;;;;;;;0.43;0.10;;;;;;;;;;2087020;28;20033;-64
2022/07/10 00:26:26;;;;;;;0.15;0.15;;;;;;;;;;2088117;28;20041;-65
2022/07/10 00:27:45;;;;;;;0.08;0.08;;;;;;;;;;2087808;28;20038;-65
2022/07/10 00:29:04;;;;;;;1.50;0.10;;;;;;;;;;2087378;28;20485;-65
2022/07/10 00:30:26;;;;;;;0.65;0.10;;;;;;;;;;2086113;28;20478;-65
2022/07/10 00:31:45;;;;;;;1.35;0.10;;;;;;;;;;2088246;28;20025;-65
2022/07/10 00:33:04;;;;;;;0.85;0.10;;;;;;;;;;2088118;28;20029;-64
2022/07/10 00:34:23;;;;;;;0.17;0.10;;;;;;;;;;2087230;28;20025;-65
2022/07/10 00:35:42;;;;;;;1.15;0.00;;;;;;;;;;2087414;28;20029;-65
2022/07/10 00:37:02;;;;;;;1.85;0.10;;;;;;;;;;2088419;28;20076;-65
2022/07/10 00:38:20;;;;;;;0.30;0.10;;;;;;;;;;2089605;28;20414;-65
2022/07/10 00:39:39;;;;;;;0.22;0.10;;;;;;;;;;2089027;28;20612;-65
2022/07/10 00:40:59;;;;;;;1.35;0.00;;;;;;;;;;2088361;28;20037;-64
2022/07/10 00:42:18;;;;;;;0.10;0.10;;;;;;;;;;2085124;28;20100;-65
2022/07/10 00:43:53;;;;;;;2.83;0.30;;;;;;;;;;2088139;28;20038;-64
2022/07/10 00:45:12;;;;;;;0.10;0.10;;;;;;;;;;2085559;28;20020;-65
2022/07/10 00:46:31;;;;;;;2.85;0.10;;;;;;;;;;2088571;28;20028;-64
2022/07/10 00:47:50;;;;;;;0.20;0.10;;;;;;;;;;2089840;28;20025;-64
2022/07/10 00:49:09;;;;;;;0.35;0.10;;;;;;;;;;2089124;28;20018;-65
2022/07/10 00:50:28;;;;;;;0.35;0.10;;;;;;;;;;2088985;28;20119;-64
2022/07/10 00:51:47;;;;;;;0.03;0.03;;;;;;;;;;2088533;28;20037;-65
2022/07/10 00:53:07;;;;;;;0.20;0.10;;;;;;;;;;2089285;28;20033;-65
2022/07/10 00:54:26;;;;;;;1.50;0.15;;;;;;;;;;2089764;28;20485;-65
2022/07/10 00:55:45;;;;;;;2.00;0.15;;;;;;;;;;2088266;28;20025;-65
2022/07/10 00:57:08;;;;;;;0.45;0.10;;;;;;;;;;2089524;28;20135;-64
2022/07/10 00:58:27;;;;;;;0.10;0.10;;;;;;;;;;2088198;28;20025;-64
2022/07/10 00:59:46;;;;;;;0.10;0.10;;;;;;;;;;2089615;28;20454;-65
2022/07/10 01:01:04;;;;;;;0.47;0.20;;;;;;;;;;2088280;28;20064;-64
2022/07/10 01:02:24;;;;;;;1.20;0.10;;;;;;;;;;2089587;28;20025;-65
2022/07/10 01:03:43;;;;;;;1.35;0.10;;;;;;;;;;2088611;28;20033;-64
2022/07/10 01:05:04;;;;;;;0.30;0.10;;;;;;;;;;2089658;28;20060;-65
2022/07/10 01:06:23;;;;;;;0.20;0.17;;;;;;;;;;2088262;28;20037;-64
2022/07/10 01:07:42;;;;;;;0.10;0.10;;;;;;;;;;2088921;28;20401;-65
2022/07/10 01:09:01;;;;;;;2.38;0.20;;;;;;;;;;2088483;28;20021;-65
2022/07/10 01:10:20;;;;;;;0.00;0.00;;;;;;;;;;2088189;28;20021;-64
2022/07/10 01:11:39;;;;;;;0.52;0.28;;;;;;;;;;2089519;28;20068;-65
2022/07/10 01:12:58;;;;;;;0.10;0.00;;;;;;;;;;2088309;28;20028;-64
2022/07/10 01:14:17;;;;;;;1.05;0.10;;;;;;;;;;2087694;28;20037;-65
2022/07/10 01:15:37;;;;;;;0.90;0.10;;;;;;;;;;2088024;28;20040;-65
2022/07/10 01:16:57;;;;;;;1.55;0.10;;;;;;;;;;2088631;28;20025;-65
2022/07/10 01:18:16;;;;;;;0.00;0.00;;;;;;;;;;2088253;28;20413;-65
2022/07/10 01:19:35;;;;;;;0.50;0.10;;;;;;;;;;2086147;28;20025;-65
2022/07/10 01:20:57;;;;;;;0.10;0.10;;;;;;;;;;2087597;28;20037;-65
2022/07/10 01:22:16;;;;;;;0.52;0.17;;;;;;;;;;2088864;28;20534;-65
2022/07/10 01:23:35;;;;;;;1.42;0.20;;;;;;;;;;2088965;28;20037;-65
2022/07/10 01:24:54;;;;;;;0.20;0.10;;;;;;;;;;2089082;28;20413;-64
2022/07/10 01:26:13;;;;;;;0.10;0.00;;;;;;;;;;2088272;28;20037;-65
2022/07/10 01:27:32;;;;;;;1.25;0.10;;;;;;;;;;2085307;28;20036;-64
2022/07/10 01:28:52;;;;;;;0.10;0.00;;;;;;;;;;2088466;28;20029;-65
2022/07/10 01:30:11;;;;;;;0.43;0.10;;;;;;;;;;2089210;28;20025;-64
2022/07/10 01:31:30;;;;;;;0.22;0.03;;;;;;;;;;2087949;28;20056;-65
2022/07/10 01:32:49;;;;;;;0.25;0.10;;;;;;;;;;2088732;28;20028;-64
2022/07/10 01:34:09;;;;;;;0.65;0.00;;;;;;;;;;2088218;28;20021;-65
2022/07/10 01:35:27;;;;;;;1.92;0.15;;;;;;;;;;2087842;28;20033;-65
2022/07/10 01:36:46;;;;;;;0.10;0.05;;;;;;;;;;2086983;28;20068;-65
2022/07/10 01:38:06;;;;;;;0.10;0.10;;;;;;;;;;2089216;28;20037;-65
2022/07/10 01:39:25;;;;;;;1.05;0.10;;;;;;;;;;2089169;28;20033;-65
2022/07/10 01:40:44;;;;;;;0.10;0.10;;;;;;;;;;2089243;28;20033;-65
2022/07/10 01:42:03;;;;;;;1.27;0.20;;;;;;;;;;2088675;28;20036;-65
2022/07/10 01:43:22;;;;;;;0.00;0.00;;;;;;;;;;2088774;28;20044;-65
2022/07/10 01:44:41;;;;;;;0.10;0.10;;;;;;;;;;2088890;28;20029;-69
2022/07/10 01:46:01;;;;;;;2.05;0.20;;;;;;;;;;2088496;28;20108;-65
2022/07/10 01:47:24;;;;;;;0.10;0.00;;;;;;;;;;2088944;28;20033;-65
2022/07/10 01:48:42;;;;;;;0.20;0.20;;;;;;;;;;2088288;28;20513;-64
2022/07/10 01:50:01;;;;;;;0.77;0.30;;;;;;;;;;2088205;28;20029;-65
2022/07/10 01:51:20;;;;;;;0.10;0.10;;;;;;;;;;2088305;28;20108;-65
2022/07/10 01:52:39;;;;;;;1.45;0.20;;;;;;;;;;2087643;28;20108;-65
2022/07/10 01:53:58;;;;;;;1.30;0.10;;;;;;;;;;2087192;28;20250;-65
2022/07/10 01:55:16;;;;;;;0.30;0.15;;;;;;;;;;2088067;28;20045;-65
2022/07/10 01:56:35;;;;;;;0.20;0.20;;;;;;;;;;2086936;28;20030;-65
2022/07/10 01:57:55;;;;;;;0.13;0.10;;;;;;;;;;2086594;28;20104;-65
2022/07/10 01:59:14;;;;;;;2.25;0.20;;;;;;;;;;2088342;28;20487;-66
2022/07/10 02:00:33;;;;;;;1.27;0.20;;;;;;;;;;2084410;28;20457;-64
2022/07/10 02:01:52;;;;;;;1.75;0.22;;;;;;;;;;2086307;28;20044;-64
2022/07/10 02:04:49;;;;;;;0.32;0.20;;;;;;;;;;2088065;28;20021;-65
2022/07/10 02:06:08;;;;;;;0.20;0.20;;;;;;;;;;2088175;28;20036;-65
2022/07/10 02:07:27;;;;;;;0.35;0.30;;;;;;;;;;2087534;28;20041;-65
2022/07/10 02:08:45;;;;;;;0.25;0.20;;;;;;;;;;2087188;28;20029;-64
2022/07/10 02:10:04;;;;;;;4.90;0.43;;;;;;;;;;2088991;28;20514;-65
2022/07/10 02:11:23;;;;;;;0.82;0.30;;;;;;;;;;2088243;28;20033;-65
2022/07/10 02:12:42;;;;;;;0.85;0.20;;;;;;;;;;2087593;28;20021;-65
2022/07/10 02:14:01;;;;;;;10.43;0.32;;;;;;;;;;2089154;28;20065;-65
2022/07/10 02:15:20;;;;;;;1.10;0.20;;;;;;;;;;2088025;28;20421;-65
2022/07/10 02:16:39;;;;;;;1.17;0.30;;;;;;;;;;2088168;28;20482;-66
2022/07/10 02:17:58;;;;;;;0.10;0.10;;;;;;;;;;2089065;28;20115;-65
2022/07/10 02:19:17;;;;;;;1.40;0.10;;;;;;;;;;2088878;28;20060;-65
2022/07/10 02:20:36;;;;;;;0.15;0.10;;;;;;;;;;2088406;28;20033;-65
2022/07/10 02:21:55;;;;;;;3.72;0.20;;;;;;;;;;2087081;28;20446;-65
2022/07/10 02:23:14;;;;;;;2.47;0.20;;;;;;;;;;2086842;28;20057;-64
2022/07/10 02:24:33;;;;;;;0.63;0.20;;;;;;;;;;2088065;28;20029;-64
2022/07/10 02:25:52;;;;;;;1.65;0.10;;;;;;;;;;2085305;28;20029;-64
2022/07/10 02:27:11;;;;;;;1.70;0.20;;;;;;;;;;2085368;28;20041;-64
2022/07/10 02:28:30;;;;;;;1.42;0.20;;;;;;;;;;2087637;28;20049;-65
2022/07/10 02:29:49;;;;;;;0.68;0.30;;;;;;;;;;2088528;28;20021;-65
2022/07/10 02:31:08;;;;;;;0.20;0.10;;;;;;;;;;2087578;28;20021;-65
2022/07/10 02:32:27;;;;;;;0.73;0.10;;;;;;;;;;2087466;28;20037;-65
2022/07/10 02:33:45;;;;;;;0.20;0.10;;;;;;;;;;2088551;28;20502;-65
2022/07/10 02:35:04;;;;;;;1.27;0.10;;;;;;;;;;2089091;28;20060;-65
2022/07/10 02:36:23;;;;;;;1.38;0.20;;;;;;;;;;2087413;28;20441;-65
2022/07/10 02:37:42;;;;;;;1.45;0.20;;;;;;;;;;2087083;28;20565;-65
2022/07/10 02:39:02;;;;;;;0.98;0.00;;;;;;;;;;2088435;28;20505;-64
2022/07/10 02:40:21;;;;;;;0.20;0.10;;;;;;;;;;2088764;28;20401;-65
2022/07/10 02:41:40;;;;;;;0.38;0.10;;;;;;;;;;2088682;28;20104;-65
2022/07/10 02:42:59;;;;;;;0.15;0.10;;;;;;;;;;2089309;28;20115;-65
2022/07/10 02:44:18;;;;;;;0.20;0.10;;;;;;;;;;2088378;28;20032;-65
2022/07/10 02:45:38;;;;;;;0.10;0.10;;;;;;;;;;2088628;28;20037;-65
2022/07/10 02:46:57;;;;;;;0.10;0.10;;;;;;;;;;2089155;28;20041;-65
2022/07/10 02:48:17;;;;;;;0.13;0.13;;;;;;;;;;2088507;28;20116;-65
2022/07/10 02:49:36;;;;;;;0.52;0.20;;;;;;;;;;2087370;28;20029;-66
2022/07/10 02:50:55;;;;;;;0.75;0.00;;;;;;;;;;2088053;28;20017;-66
2022/07/10 02:52:14;;;;;;;0.70;0.10;;;;;;;;;;2086299;28;20025;-65
2022/07/10 02:53:33;;;;;;;0.32;0.10;;;;;;;;;;2087648;28;20112;-65
2022/07/10 02:54:52;;;;;;;1.42;0.10;;;;;;;;;;2084330;28;20104;-65
2022/07/10 02:56:11;;;;;;;1.17;0.00;;;;;;;;;;2087642;28;20026;-65
2022/07/10 02:57:30;;;;;;;0.55;0.10;;;;;;;;;;2085366;28;20494;-65
2022/07/10 02:58:49;;;;;;;0.10;0.10;;;;;;;;;;2088115;28;20033;-65
2022/07/10 03:00:09;;;;;;;0.00;0.00;;;;;;;;;;2088113;28;20521;-65
2022/07/10 03:01:28;;;;;;;0.08;0.05;;;;;;;;;;2087377;28;20072;-65
2022/07/10 03:02:47;;;;;;;0.40;0.10;;;;;;;;;;2088132;28;20033;-65
2022/07/10 03:04:06;;;;;;;0.40;0.10;;;;;;;;;;2088080;28;20036;-65
2022/07/10 03:05:24;;;;;;;0.10;0.10;;;;;;;;;;2088449;28;20045;-65
2022/07/10 03:06:43;;;;;;;0.10;0.10;;;;;;;;;;2085930;28;20029;-65
2022/07/10 03:08:02;;;;;;;0.20;0.10;;;;;;;;;;2086468;28;20030;-65
2022/07/10 03:09:21;;;;;;;0.10;0.10;;;;;;;;;;2089004;28;20498;-65
2022/07/10 03:10:40;;;;;;;0.38;0.10;;;;;;;;;;2088596;28;20037;-65
2022/07/10 03:12:00;;;;;;;0.10;0.10;;;;;;;;;;2088045;28;20017;-64
2022/07/10 03:13:19;;;;;;;0.10;0.05;;;;;;;;;;2086838;28;20479;-65
2022/07/10 03:14:37;;;;;;;0.10;0.10;;;;;;;;;;2087832;28;20065;-64
2022/07/10 03:15:56;;;;;;;0.68;0.10;;;;;;;;;;2086956;28;20056;-65
2022/07/10 03:17:15;;;;;;;2.10;0.10;;;;;;;;;;2088664;28;20485;-65
2022/07/10 03:18:34;;;;;;;0.25;0.00;;;;;;;;;;2087933;28;20048;-65
2022/07/10 03:19:54;;;;;;;0.57;0.10;;;;;;;;;;2087703;28;20018;-65
2022/07/10 03:21:13;;;;;;;0.88;0.00;;;;;;;;;;2085655;28;20029;-65
2022/07/10 03:22:32;;;;;;;0.00;0.00;;;;;;;;;;2086135;28;20037;-65
2022/07/10 03:25:22;;;;;;;0.08;0.00;;;;;;;;;;2077490;28;20061;-81
2022/07/10 03:26:41;;;;;;;1.70;0.10;;;;;;;;;;2070961;28;20037;-81
2022/07/10 03:27:59;;;;;;;0.10;0.00;;;;;;;;;;2075550;28;20033;-83
2022/07/10 03:29:18;;;;;;;0.10;0.03;;;;;;;;;;2078454;28;20081;-82
2022/07/10 03:30:37;;;;;;;0.10;0.10;;;;;;;;;;2071802;28;20501;-81
2022/07/10 03:31:56;;;;;;;0.10;0.10;;;;;;;;;;2076997;28;20022;-82
2022/07/10 03:33:15;;;;;;;0.10;0.10;;;;;;;;;;2070356;28;20037;-81
2022/07/10 03:34:34;;;;;;;0.13;0.10;;;;;;;;;;2076791;28;20061;-83
2022/07/10 03:35:53;;;;;;;0.20;0.00;;;;;;;;;;2072209;28;20030;-81
2022/07/10 03:37:12;;;;;;;0.60;0.10;;;;;;;;;;2067863;28;20403;-82
2022/07/10 03:38:31;;;;;;;0.38;0.10;;;;;;;;;;2070305;28;20030;-81
2022/07/10 03:39:50;;;;;;;0.00;0.00;;;;;;;;;;2072392;28;20045;-81
2022/07/10 03:41:09;;;;;;;0.00;0.00;;;;;;;;;;2068496;28;20034;-81
2022/07/10 03:42:28;;;;;;;0.63;0.10;;;;;;;;;;2077222;28;20025;-82
2022/07/10 03:43:47;;;;;;;0.20;0.10;;;;;;;;;;2080198;28;20491;-81
2022/07/10 03:45:06;;;;;;;0.47;0.30;;;;;;;;;;2080887;28;20022;-81
2022/07/10 03:46:25;;;;;;;0.10;0.10;;;;;;;;;;2071116;28;20025;-81
2022/07/10 03:47:43;;;;;;;0.80;0.10;;;;;;;;;;2075931;28;20022;-82
2022/07/10 03:49:02;;;;;;;0.98;0.10;;;;;;;;;;2071399;28;20030;-81
2022/07/10 03:50:21;;;;;;;0.13;0.00;;;;;;;;;;2071662;28;20108;-82
2022/07/10 03:51:40;;;;;;;0.13;0.03;;;;;;;;;;2077440;28;20033;-81
2022/07/10 03:52:59;;;;;;;1.30;0.10;;;;;;;;;;2071925;28;20022;-81
2022/07/10 03:54:18;;;;;;;0.10;0.10;;;;;;;;;;2072438;28;20029;-81
2022/07/10 03:55:37;;;;;;;0.13;0.10;;;;;;;;;;2069386;28;20026;-81
2022/07/10 03:58:34;;;;;;;0.10;0.10;;;;;;;;;;2079395;28;20434;-82
2022/07/10 03:59:54;;;;;;;0.10;0.10;;;;;;;;;;2071631;28;20045;-81
2022/07/10 04:01:13;;;;;;;0.25;0.10;;;;;;;;;;2068924;28;20515;-81
2022/07/10 04:02:32;;;;;;;0.08;0.08;;;;;;;;;;2075704;28;20038;-81
2022/07/10 04:03:51;;;;;;;0.30;0.00;;;;;;;;;;2071344;28;20026;-82
2022/07/10 04:05:10;;;;;;;0.70;0.00;;;;;;;;;;2071133;28;20038;-82
2022/07/10 04:06:29;;;;;;;1.20;0.00;;;;;;;;;;2068071;28;20037;-81
2022/07/10 04:07:48;;;;;;;0.10;0.10;;;;;;;;;;2077114;28;20030;-82
2022/07/10 04:09:07;;;;;;;0.00;0.00;;;;;;;;;;2080123;28;20021;-81
2022/07/10 04:10:26;;;;;;;1.17;0.00;;;;;;;;;;2072779;28;20504;-81
2022/07/10 04:11:45;;;;;;;0.10;0.10;;;;;;;;;;2079037;28;20029;-81
2022/07/10 04:13:04;;;;;;;0.28;0.10;;;;;;;;;;2082290;28;20395;-81
2022/07/10 04:14:23;;;;;;;0.45;0.10;;;;;;;;;;2081955;28;20391;-81
2022/07/10 04:15:42;;;;;;;4.93;4.03;;;;;;;;;;2065534;28;20035;-81
2022/07/10 04:17:01;;;;;;;0.20;0.20;;;;;;;;;;2070597;28;20069;-81
2022/07/10 04:18:20;;;;;;;1.17;0.00;;;;;;;;;;2074043;28;20062;-81
2022/07/10 04:19:39;;;;;;;0.95;0.63;;;;;;;;;;2065474;28;20034;-81
2022/07/10 04:20:57;;;;;;;1.15;1.05;;;;;;;;;;2069721;28;20034;-81
2022/07/10 04:22:16;;;;;;;0.30;0.30;;;;;;;;;;2065131;28;20098;-82
2022/07/10 04:23:35;;;;;;;1.17;0.00;;;;;;;;;;2062028;28;20043;-82
2022/07/10 04:24:54;;;;;;;0.20;0.20;;;;;;;;;;2070025;28;20037;-81
2022/07/10 04:26:13;;;;;;;0.10;0.10;;;;;;;;;;2065252;28;20030;-81
2022/07/10 04:27:32;;;;;;;0.80;0.20;;;;;;;;;;2070053;28;20030;-84
2022/07/10 04:28:51;;;;;;;0.65;0.40;;;;;;;;;;2072057;28;20997;-82
2022/07/10 04:30:10;;;;;;;0.00;0.00;;;;;;;;;;2073888;28;20034;-81
2022/07/10 04:31:29;;;;;;;0.10;0.10;;;;;;;;;;2065368;28;20022;-81
2022/07/10 04:32:47;;;;;;;0.10;0.10;;;;;;;;;;2070314;28;20491;-81
2022/07/10 04:34:06;;;;;;;0.30;0.10;;;;;;;;;;2073268;28;20033;-81
2022/07/10 04:35:25;;;;;;;0.10;0.10;;;;;;;;;;2064197;28;20519;-81
2022/07/10 04:36:47;;;;;;;0.75;0.08;;;;;;;;;;2063882;28;20026;-84
2022/07/10 04:38:06;;;;;;;0.85;0.00;;;;;;;;;;2071935;28;20030;-81
2022/07/10 04:39:25;;;;;;;1.55;0.20;;;;;;;;;;2064685;28;20121;-82
2022/07/10 04:40:45;;;;;;;0.50;0.10;;;;;;;;;;2070734;28;20061;-81
2022/07/10 04:42:04;;;;;;;1.08;0.10;;;;;;;;;;2065234;28;20030;-81
2022/07/10 04:43:23;;;;;;;0.20;0.10;;;;;;;;;;2062449;28;20026;-82
2022/07/10 04:44:42;;;;;;;1.52;0.13;;;;;;;;;;2070148;28;20030;-82
2022/07/10 04:46:01;;;;;;;0.00;0.00;;;;;;;;;;2073918;28;20065;-82
2022/07/10 04:47:20;;;;;;;1.65;0.10;;;;;;;;;;2064688;28;20038;-81
2022/07/10 04:48:38;;;;;;;1.70;0.00;;;;;;;;;;2070750;28;20026;-82
2022/07/10 04:49:57;;;;;;;0.03;0.03;;;;;;;;;;2064187;28;20022;-82
2022/07/10 04:51:16;;;;;;;0.32;0.00;;;;;;;;;;2062295;28;20038;-81
2022/07/10 04:52:35;;;;;;;1.05;0.20;;;;;;;;;;2069949;28;20042;-82
2022/07/10 04:53:54;;;;;;;1.75;0.00;;;;;;;;;;2072834;28;20089;-81
2022/07/10 04:55:16;;;;;;;0.15;0.00;;;;;;;;;;2074306;28;20110;-81
2022/07/10 04:56:35;;;;;;;0.30;0.10;;;;;;;;;;2065342;28;20035;-82
2022/07/10 04:57:53;;;;;;;0.05;0.00;;;;;;;;;;2065280;28;20034;-81
2022/07/10 04:59:12;;;;;;;0.10;0.00;;;;;;;;;;2064849;28;20106;-81
2022/07/10 05:00:32;;;;;;;0.10;0.10;;;;;;;;;;2061962;28;20086;-81
2022/07/10 05:01:50;;;;;;;0.10;0.10;;;;;;;;;;2062275;28;20509;-81
2022/07/10 05:03:10;;;;;;;0.32;0.00;;;;;;;;;;2070328;28;20026;-81
2022/07/10 05:04:29;;;;;;;0.00;0.00;;;;;;;;;;2072539;28;20033;-82
2022/07/10 05:05:48;;;;;;;0.00;0.00;;;;;;;;;;2065191;28;20073;-81
2022/07/10 05:07:06;;;;;;;0.10;0.00;;;;;;;;;;2061752;28;20042;-82
2022/07/10 05:08:26;;;;;;;0.00;0.00;;;;;;;;;;2069735;28;20034;-81
2022/07/10 05:09:45;;;;;;;0.00;0.00;;;;;;;;;;2064613;28;20034;-81
2022/07/10 05:11:03;;;;;;;0.10;0.00;;;;;;;;;;2070491;28;20033;-82
2022/07/10 05:12:22;;;;;;;1.75;0.10;;;;;;;;;;2072334;28;20057;-81
2022/07/10 05:13:45;;;;;;;0.17;0.00;;;;;;;;;;2073143;28;20391;-82
2022/07/10 05:15:04;;;;;;;0.05;0.00;;;;;;;;;;2064009;28;20030;-82
2022/07/10 05:16:23;;;;;;;0.03;0.03;;;;;;;;;;2069589;28;20156;-82
2022/07/10 05:17:42;;;;;;;0.70;0.22;;;;;;;;;;2073864;28;20392;-81
2022/07/10 05:19:01;;;;;;;0.00;0.00;;;;;;;;;;2064674;28;20030;-82
2022/07/10 05:20:20;;;;;;;0.03;0.00;;;;;;;;;;2069748;28;20037;-81
2022/07/10 05:21:39;;;;;;;0.10;0.00;;;;;;;;;;2072909;28;20037;-82
2022/07/10 05:22:58;;;;;;;0.00;0.00;;;;;;;;;;2073920;28;20037;-82
2022/07/10 05:24:17;;;;;;;1.00;0.47;;;;;;;;;;2064394;28;20073;-81
2022/07/10 05:25:37;;;;;;;2.15;0.00;;;;;;;;;;2069656;28;20042;-81
2022/07/10 05:26:56;;;;;;;1.20;0.00;;;;;;;;;;2064551;28;20038;-82
2022/07/10 05:28:15;;;;;;;2.50;0.10;;;;;;;;;;2069325;28;20476;-80
2022/07/10 05:29:33;;;;;;;0.10;0.10;;;;;;;;;;2064922;28;20035;-81
2022/07/10 05:30:52;;;;;;;0.40;0.10;;;;;;;;;;2069531;28;20034;-82
2022/07/10 05:32:11;;;;;;;0.68;0.10;;;;;;;;;;2073561;28;20515;-82
2022/07/10 05:33:30;;;;;;;0.00;0.00;;;;;;;;;;2064375;28;20039;-81
2022/07/10 05:34:49;;;;;;;0.10;0.10;;;;;;;;;;2061533;28;20073;-81
2022/07/10 05:36:08;;;;;;;1.65;0.10;;;;;;;;;;2069633;28;20034;-82
2022/07/10 05:37:27;;;;;;;0.43;0.00;;;;;;;;;;2065554;28;20113;-81
2022/07/10 05:38:46;;;;;;;0.63;0.10;;;;;;;;;;2064793;28;20034;-81
2022/07/10 05:40:05;;;;;;;0.05;0.05;;;;;;;;;;2069877;28;20026;-82
2022/07/10 05:41:24;;;;;;;0.45;0.03;;;;;;;;;;2073632;28;20022;-81
2022/07/10 05:42:44;;;;;;;0.30;0.17;;;;;;;;;;2073049;28;20030;-81
2022/07/10 05:44:03;;;;;;;0.03;0.00;;;;;;;;;;2064496;28;20050;-81
2022/07/10 05:45:22;;;;;;;0.77;0.00;;;;;;;;;;2064995;28;20031;-84
2022/07/10 05:46:41;;;;;;;0.47;0.05;;;;;;;;;;2068769;28;20034;-82
2022/07/10 05:47:59;;;;;;;0.45;0.08;;;;;;;;;;2072744;28;20116;-81
2022/07/10 05:49:18;;;;;;;0.22;0.00;;;;;;;;;;2072547;28;20704;-82
2022/07/10 05:50:37;;;;;;;0.20;0.10;;;;;;;;;;2064454;28;20034;-81
2022/07/10 05:51:56;;;;;;;0.00;0.00;;;;;;;;;;2068652;28;20120;-81
2022/07/10 05:53:14;;;;;;;0.38;0.10;;;;;;;;;;2065109;28;20101;-82
2022/07/10 05:54:33;;;;;;;1.45;0.10;;;;;;;;;;2069520;28;20446;-82
2022/07/10 05:55:52;;;;;;;0.30;0.30;;;;;;;;;;2064398;28;20034;-82
2022/07/10 05:57:11;;;;;;;0.10;0.05;;;;;;;;;;2064748;28;20026;-82
2022/07/10 05:58:30;;;;;;;0.10;0.03;;;;;;;;;;2064769;28;20484;-82
2022/07/10 05:59:49;;;;;;;0.40;0.00;;;;;;;;;;2065368;28;20033;-82
2022/07/10 06:01:08;;;;;;;0.05;0.00;;;;;;;;;;2069456;28;20515;-82
2022/07/10 06:02:27;;;;;;;0.17;0.00;;;;;;;;;;2064425;28;20039;-82
2022/07/10 06:03:46;;;;;;;0.50;0.08;;;;;;;;;;2068687;28;20030;-82
2022/07/10 06:05:05;;;;;;;0.75;0.00;;;;;;;;;;2067173;28;20027;-81
2022/07/10 06:06:24;;;;;;;0.50;0.10;;;;;;;;;;2063956;28;20038;-82
2022/07/10 06:07:43;;;;;;;0.00;0.00;;;;;;;;;;2063106;28;20030;-82
2022/07/10 06:09:02;;;;;;;0.05;0.00;;;;;;;;;;2069995;28;20034;-82
2022/07/10 06:10:21;;;;;;;0.00;0.00;;;;;;;;;;2072991;28;20033;-82
2022/07/10 06:11:41;;;;;;;0.63;0.10;;;;;;;;;;2072885;28;20465;-82
2022/07/10 06:13:00;;;;;;;0.05;0.00;;;;;;;;;;2073100;28;20056;-83
2022/07/10 06:14:19;;;;;;;0.30;0.10;;;;;;;;;;2072790;28;20026;-81
2022/07/10 06:15:38;;;;;;;2.05;0.10;;;;;;;;;;2064455;28;20027;-82
2022/07/10 06:16:57;;;;;;;1.45;0.10;;;;;;;;;;2069456;28;20132;-82
2022/07/10 06:18:16;;;;;;;0.10;0.10;;;;;;;;;;2072545;28;20033;-82
2022/07/10 06:19:35;;;;;;;0.15;0.00;;;;;;;;;;2064303;28;20030;-82
2022/07/10 06:20:54;;;;;;;0.32;0.17;;;;;;;;;;2069116;28;20038;-82
2022/07/10 06:22:31;;;;;;;1.35;0.10;;;;;;;;;;2064911;28;20046;-81
2022/07/10 06:23:50;;;;;;;0.30;0.20;;;;;;;;;;2063832;28;20439;-83
2022/07/10 06:25:11;;;;;;;0.10;0.10;;;;;;;;;;2060720;28;20035;-81
2022/07/10 06:26:31;;;;;;;0.10;0.10;;;;;;;;;;2061067;28;20162;-82
2022/07/10 06:27:50;;;;;;;0.30;0.10;;;;;;;;;;2064585;28;20054;-82
2022/07/10 06:29:09;;;;;;;0.70;0.10;;;;;;;;;;2064270;28;20527;-82
2022/07/10 06:30:28;;;;;;;0.10;0.10;;;;;;;;;;2061634;28;20030;-82
2022/07/10 06:31:47;;;;;;;0.10;0.00;;;;;;;;;;2060533;28;20488;-82
2022/07/10 06:33:05;;;;;;;1.60;0.52;;;;;;;;;;2063466;28;20034;-82
2022/07/10 06:34:25;;;;;;;0.85;0.10;;;;;;;;;;2064003;28;20038;-82
2022/07/10 06:35:43;;;;;;;0.10;0.10;;;;;;;;;;2060904;28;20026;-82
2022/07/10 06:37:02;;;;;;;0.43;0.08;;;;;;;;;;2061156;28;20448;-81
2022/07/10 06:38:21;;;;;;;0.00;0.00;;;;;;;;;;2069985;28;20034;-82
2022/07/10 06:39:40;;;;;;;2.90;0.20;;;;;;;;;;2064764;28;20551;-82
2022/07/10 06:40:59;;;;;;;0.10;0.08;;;;;;;;;;2063925;28;20041;-81
2022/07/10 06:42:18;;;;;;;0.30;0.03;;;;;;;;;;2060942;28;20049;-81
2022/07/10 06:43:37;;;;;;;0.55;0.20;;;;;;;;;;2069749;28;20037;-82
2022/07/10 06:44:56;;;;;;;0.00;0.00;;;;;;;;;;2064715;28;20520;-82
2022/07/10 06:46:15;;;;;;;0.32;0.00;;;;;;;;;;2061216;28;20038;-82
2022/07/10 06:49:11;;;;;;;0.85;0.00;;;;;;;;;;2071347;28;20475;-81
2022/07/10 06:50:31;;;;;;;0.08;0.08;;;;;;;;;;2073150;28;20034;-82
2022/07/10 06:51:50;;;;;;;0.00;0.00;;;;;;;;;;2063781;28;20035;-82
2022/07/10 06:53:09;;;;;;;1.45;0.10;;;;;;;;;;2060325;28;20034;-82
2022/07/10 06:54:28;;;;;;;0.28;0.13;;;;;;;;;;2060853;28;20061;-82
2022/07/10 06:55:48;;;;;;;0.20;0.10;;;;;;;;;;2069625;28;20022;-81
2022/07/10 06:57:07;;;;;;;0.10;0.00;;;;;;;;;;2064517;28;20492;-81
2022/07/10 06:58:26;;;;;;;0.10;0.08;;;;;;;;;;2069401;28;20431;-82
2022/07/10 06:59:46;;;;;;;0.00;0.00;;;;;;;;;;2073198;28;20038;-81
2022/07/10 07:01:05;;;;;;;0.15;0.10;;;;;;;;;;2064385;28;20042;-82
2022/07/10 07:02:25;;;;;;;1.75;0.10;;;;;;;;;;2061624;28;20025;-82
2022/07/10 07:03:44;;;;;;;0.25;0.10;;;;;;;;;;2061932;28;20034;-82
2022/07/10 07:05:03;;;;;;;0.35;0.32;;;;;;;;;;2068520;28;20033;-82
2022/07/10 07:06:21;;;;;;;0.20;0.20;;;;;;;;;;2063522;28;20026;-81
2022/07/10 07:07:40;;;;;;;0.13;0.08;;;;;;;;;;2060774;28;20069;-82
2022/07/10 07:08:59;;;;;;;0.35;0.00;;;;;;;;;;2061131;28;20070;-82
2022/07/10 07:10:18;;;;;;;0.13;0.00;;;;;;;;;;2063980;28;20026;-82
2022/07/10 07:11:36;;;;;;;0.10;0.00;;;;;;;;;;2068816;28;20025;-82
2022/07/10 07:12:55;;;;;;;0.55;0.00;;;;;;;;;;2064194;28;20038;-82
2022/07/10 07:14:14;;;;;;;0.00;0.00;;;;;;;;;;2064619;28;20030;-82
2022/07/10 07:15:38;;;;;;;1.20;0.10;;;;;;;;;;2068619;28;20053;-82
2022/07/10 07:17:08;;;;;;;0.95;0.80;;;;;;;;;;2063348;28;20030;-82
2022/07/10 07:18:35;;;;;;;0.08;0.08;;;;;;;;;;2070708;28;20042;-82
2022/07/10 07:23:11;;;;;;;0.10;0.10;;;;;;;;;;2072424;28;20403;-82
2022/07/10 07:24:30;;;;;;;0.20;0.15;;;;;;;;;;2064141;28;20038;-81
2022/07/10 07:25:49;;;;;;;0.00;0.00;;;;;;;;;;2069658;28;20045;-81
2022/07/10 07:27:08;;;;;;;0.00;0.00;;;;;;;;;;2072166;28;20112;-82
2022/07/10 07:28:27;;;;;;;0.20;0.10;;;;;;;;;;2070939;28;20108;-82
2022/07/10 07:29:45;;;;;;;0.10;0.10;;;;;;;;;;2064426;28;20026;-81
2022/07/10 07:31:04;;;;;;;0.10;0.10;;;;;;;;;;2069362;28;20030;-81
2022/07/10 07:32:23;;;;;;;0.20;0.20;;;;;;;;;;2072233;28;20026;-82
2022/07/10 07:33:42;;;;;;;0.03;0.00;;;;;;;;;;2064117;28;20400;-81
2022/07/10 07:35:01;;;;;;;0.25;0.00;;;;;;;;;;2063220;28;20149;-82
2022/07/10 07:36:20;;;;;;;0.47;0.10;;;;;;;;;;2069240;28;20038;-81
2022/07/10 07:37:43;;;;;;;0.05;0.05;;;;;;;;;;2072143;28;20025;-82
2022/07/10 07:39:02;;;;;;;1.27;0.00;;;;;;;;;;2063600;28;20030;-81
2022/07/10 07:40:23;;;;;;;0.80;0.10;;;;;;;;;;2068451;28;20045;-82
2022/07/10 07:41:41;;;;;;;0.25;0.10;;;;;;;;;;2063923;28;20030;-82
2022/07/10 07:43:00;;;;;;;0.00;0.00;;;;;;;;;;2061021;28;20070;-82
2022/07/10 07:44:20;;;;;;;0.10;0.00;;;;;;;;;;2061513;28;20035;-82
2022/07/10 07:45:39;;;;;;;1.52;0.40;;;;;;;;;;2065816;28;20049;-82
2022/07/10 07:46:58;;;;;;;0.17;0.00;;;;;;;;;;2070333;28;20499;-82
2022/07/10 07:48:17;;;;;;;0.32;0.10;;;;;;;;;;2074127;28;20034;-82
2022/07/10 07:49:36;;;;;;;0.00;0.00;;;;;;;;;;2075028;28;20399;-81
2022/07/10 07:50:54;;;;;;;0.00;0.00;;;;;;;;;;2074766;28;20476;-81
2022/07/10 07:52:14;;;;;;;0.00;0.00;;;;;;;;;;2065262;28;20034;-82
2022/07/10 07:53:33;;;;;;;0.00;0.00;;;;;;;;;;2071591;28;20498;-81
2022/07/10 07:54:51;;;;;;;0.10;0.00;;;;;;;;;;2074337;28;20045;-82
2022/07/10 07:56:10;;;;;;;1.23;0.05;;;;;;;;;;2073808;28;20026;-82
2022/07/10 07:57:29;;;;;;;0.00;0.00;;;;;;;;;;2072216;28;20038;-82
2022/07/10 07:58:48;;;;;;;0.00;0.00;;;;;;;;;;2064678;28;20038;-81
2022/07/10 08:00:08;;;;;;;0.00;0.00;;;;;;;;;;2062619;28;20026;-81
2022/07/10 08:01:27;;;;;;;0.20;0.05;;;;;;;;;;2071654;28;20030;-82
2022/07/10 08:02:46;;;;;;;0.00;0.00;;;;;;;;;;2064061;28;20053;-82
2022/07/10 08:04:05;;;;;;;0.25;0.08;;;;;;;;;;2063059;28;20030;-81